sensor_id;sensor_type;location;lat;lon;timestamp;P1;durP1;ratioP1;P2;durP2;ratioP2
8040;SDS011;4063;48.140;10.250;2023-03-01T00:01:48;20.17;;;15.73;;
8040;SDS011;4063;48.140;10.250;2023-03-01T00:04:14;20.40;;;15.50;;
8040;SDS011;4063;48.140;10.250;2023-03-01T00:06:41;20.03;;;15.33;;
8040;SDS011;4063;48.140;10.250;2023-03-01T00:09:11;20.90;;;16.03;;
8040;SDS011;4063;48.140;10.250;2023-03-01T00:11:37;20.57;;;15.87;;
8040;SDS011;4063;48.140;10.250;2023-03-01T00:14:03;21.50;;;16.33;;
8040;SDS011;4063;48.140;10.250;2023-03-01T00:16:36;23.43;;;16.30;;
8040;SDS011;4063;48.140;10.250;2023-03-01T00:19:06;18.53;;;15.57;;
8040;SDS011;4063;48.140;10.250;2023-03-01T00:21:32;23.60;;;16.87;;
8040;SDS011;4063;48.140;10.250;2023-03-01T00:24:00;20.93;;;16.30;;
8040;SDS011;4063;48.140;10.250;2023-03-01T00:26:26;19.87;;;16.30;;
8040;SDS011;4063;48.140;10.250;2023-03-01T00:28:53;24.90;;;16.87;;
8040;SDS011;4063;48.140;10.250;2023-03-01T00:31:21;21.53;;;16.23;;
8040;SDS011;4063;48.140;10.250;2023-03-01T00:33:47;21.20;;;16.80;;
8040;SDS011;4063;48.140;10.250;2023-03-01T00:36:14;23.63;;;16.70;;
8040;SDS011;4063;48.140;10.250;2023-03-01T00:38:41;22.37;;;16.47;;
8040;SDS011;4063;48.140;10.250;2023-03-01T00:41:11;20.40;;;16.17;;
8040;SDS011;4063;48.140;10.250;2023-03-01T00:43:37;20.70;;;15.80;;
8040;SDS011;4063;48.140;10.250;2023-03-01T00:46:04;21.03;;;16.47;;
8040;SDS011;4063;48.140;10.250;2023-03-01T00:48:30;20.50;;;15.77;;
8040;SDS011;4063;48.140;10.250;2023-03-01T00:50:56;22.20;;;16.07;;
8040;SDS011;4063;48.140;10.250;2023-03-01T00:53:22;21.37;;;15.77;;
8040;SDS011;4063;48.140;10.250;2023-03-01T00:55:48;22.77;;;16.70;;
8040;SDS011;4063;48.140;10.250;2023-03-01T00:58:14;20.13;;;15.30;;
8040;SDS011;4063;48.140;10.250;2023-03-01T01:00:40;21.77;;;17.13;;
8040;SDS011;4063;48.140;10.250;2023-03-01T01:03:06;20.93;;;16.57;;
8040;SDS011;4063;48.140;10.250;2023-03-01T01:05:34;20.63;;;16.30;;
8040;SDS011;4063;48.140;10.250;2023-03-01T01:08:02;22.63;;;17.17;;
8040;SDS011;4063;48.140;10.250;2023-03-01T01:10:27;22.60;;;17.27;;
8040;SDS011;4063;48.140;10.250;2023-03-01T01:12:54;24.00;;;17.70;;
8040;SDS011;4063;48.140;10.250;2023-03-01T01:15:20;22.67;;;17.43;;
8040;SDS011;4063;48.140;10.250;2023-03-01T01:17:46;23.90;;;16.30;;
8040;SDS011;4063;48.140;10.250;2023-03-01T01:20:12;21.73;;;16.53;;
8040;SDS011;4063;48.140;10.250;2023-03-01T01:22:38;23.23;;;17.10;;
8040;SDS011;4063;48.140;10.250;2023-03-01T01:25:04;22.87;;;18.33;;
8040;SDS011;4063;48.140;10.250;2023-03-01T01:27:30;21.87;;;17.23;;
8040;SDS011;4063;48.140;10.250;2023-03-01T01:29:56;20.90;;;16.63;;
8040;SDS011;4063;48.140;10.250;2023-03-01T01:32:22;21.40;;;17.23;;
8040;SDS011;4063;48.140;10.250;2023-03-01T01:34:48;22.27;;;17.33;;
8040;SDS011;4063;48.140;10.250;2023-03-01T01:37:14;22.50;;;17.30;;
8040;SDS011;4063;48.140;10.250;2023-03-01T01:39:40;23.83;;;18.27;;
8040;SDS011;4063;48.140;10.250;2023-03-01T01:42:08;23.77;;;18.33;;
8040;SDS011;4063;48.140;10.250;2023-03-01T01:44:35;27.00;;;17.90;;
8040;SDS011;4063;48.140;10.250;2023-03-01T01:47:02;21.83;;;17.03;;
8040;SDS011;4063;48.140;10.250;2023-03-01T01:49:42;21.07;;;16.63;;
8040;SDS011;4063;48.140;10.250;2023-03-01T01:52:16;22.70;;;17.47;;
8040;SDS011;4063;48.140;10.250;2023-03-01T01:57:13;24.50;;;18.10;;
8040;SDS011;4063;48.140;10.250;2023-03-01T01:59:40;25.10;;;18.50;;
8040;SDS011;4063;48.140;10.250;2023-03-01T02:02:08;22.33;;;17.80;;
8040;SDS011;4063;48.140;10.250;2023-03-01T02:04:34;26.67;;;17.23;;
8040;SDS011;4063;48.140;10.250;2023-03-01T02:07:01;23.33;;;17.47;;
8040;SDS011;4063;48.140;10.250;2023-03-01T02:09:29;22.33;;;17.77;;
8040;SDS011;4063;48.140;10.250;2023-03-01T02:11:56;25.10;;;18.30;;
8040;SDS011;4063;48.140;10.250;2023-03-01T02:14:22;23.17;;;17.47;;
8040;SDS011;4063;48.140;10.250;2023-03-01T02:16:48;24.37;;;17.97;;
8040;SDS011;4063;48.140;10.250;2023-03-01T02:19:21;25.43;;;17.90;;
8040;SDS011;4063;48.140;10.250;2023-03-01T02:27:16;20.50;;;16.47;;
8040;SDS011;4063;48.140;10.250;2023-03-01T02:29:42;24.47;;;16.80;;
8040;SDS011;4063;48.140;10.250;2023-03-01T02:32:09;22.63;;;17.70;;
8040;SDS011;4063;48.140;10.250;2023-03-01T02:34:36;21.43;;;17.17;;
8040;SDS011;4063;48.140;10.250;2023-03-01T02:37:06;25.30;;;18.13;;
8040;SDS011;4063;48.140;10.250;2023-03-01T02:39:37;21.70;;;17.10;;
8040;SDS011;4063;48.140;10.250;2023-03-01T02:42:07;24.00;;;17.77;;
8040;SDS011;4063;48.140;10.250;2023-03-01T02:44:35;21.40;;;17.77;;
8040;SDS011;4063;48.140;10.250;2023-03-01T02:47:01;25.27;;;18.23;;
8040;SDS011;4063;48.140;10.250;2023-03-01T02:49:30;23.33;;;17.03;;
8040;SDS011;4063;48.140;10.250;2023-03-01T02:52:14;23.57;;;17.93;;
8040;SDS011;4063;48.140;10.250;2023-03-01T02:54:46;23.70;;;17.20;;
8040;SDS011;4063;48.140;10.250;2023-03-01T02:57:12;24.50;;;17.30;;
8040;SDS011;4063;48.140;10.250;2023-03-01T02:59:39;25.50;;;19.13;;
8040;SDS011;4063;48.140;10.250;2023-03-01T03:02:06;21.50;;;16.00;;
8040;SDS011;4063;48.140;10.250;2023-03-01T03:04:32;25.13;;;18.17;;
8040;SDS011;4063;48.140;10.250;2023-03-01T03:06:58;22.27;;;17.03;;
8040;SDS011;4063;48.140;10.250;2023-03-01T03:09:25;21.50;;;16.53;;
8040;SDS011;4063;48.140;10.250;2023-03-01T03:11:51;28.03;;;17.93;;
8040;SDS011;4063;48.140;10.250;2023-03-01T03:14:17;22.43;;;17.00;;
8040;SDS011;4063;48.140;10.250;2023-03-01T03:16:45;22.60;;;18.47;;
8040;SDS011;4063;48.140;10.250;2023-03-01T03:19:11;21.50;;;17.00;;
8040;SDS011;4063;48.140;10.250;2023-03-01T03:21:37;22.87;;;17.20;;
8040;SDS011;4063;48.140;10.250;2023-03-01T03:24:03;24.33;;;18.50;;
8040;SDS011;4063;48.140;10.250;2023-03-01T03:26:30;25.35;;;20.88;;
8040;SDS011;4063;48.140;10.250;2023-03-01T03:28:56;25.03;;;18.00;;
8040;SDS011;4063;48.140;10.250;2023-03-01T03:31:22;26.43;;;18.30;;
8040;SDS011;4063;48.140;10.250;2023-03-01T03:33:48;22.80;;;16.93;;
8040;SDS011;4063;48.140;10.250;2023-03-01T03:36:18;24.80;;;18.33;;
8040;SDS011;4063;48.140;10.250;2023-03-01T03:38:44;22.57;;;17.80;;
8040;SDS011;4063;48.140;10.250;2023-03-01T03:41:11;23.37;;;17.40;;
8040;SDS011;4063;48.140;10.250;2023-03-01T03:43:38;23.83;;;17.50;;
8040;SDS011;4063;48.140;10.250;2023-03-01T03:46:05;21.70;;;16.73;;
8040;SDS011;4063;48.140;10.250;2023-03-01T03:48:44;25.93;;;18.90;;
8040;SDS011;4063;48.140;10.250;2023-03-01T03:51:12;24.87;;;17.63;;
8040;SDS011;4063;48.140;10.250;2023-03-01T03:53:38;21.07;;;17.27;;
8040;SDS011;4063;48.140;10.250;2023-03-01T03:56:04;21.83;;;17.20;;
8040;SDS011;4063;48.140;10.250;2023-03-01T03:58:30;23.70;;;18.10;;
8040;SDS011;4063;48.140;10.250;2023-03-01T04:00:57;24.70;;;18.23;;
8040;SDS011;4063;48.140;10.250;2023-03-01T04:03:23;23.47;;;17.57;;
8040;SDS011;4063;48.140;10.250;2023-03-01T04:05:50;24.90;;;17.80;;
8040;SDS011;4063;48.140;10.250;2023-03-01T04:08:16;24.07;;;18.67;;
8040;SDS011;4063;48.140;10.250;2023-03-01T04:10:45;24.63;;;18.37;;
8040;SDS011;4063;48.140;10.250;2023-03-01T04:13:13;25.73;;;18.37;;
8040;SDS011;4063;48.140;10.250;2023-03-01T04:15:39;23.30;;;18.27;;
8040;SDS011;4063;48.140;10.250;2023-03-01T04:18:06;22.67;;;17.77;;
8040;SDS011;4063;48.140;10.250;2023-03-01T04:20:33;23.73;;;18.43;;
8040;SDS011;4063;48.140;10.250;2023-03-01T04:23:13;26.27;;;17.97;;
8040;SDS011;4063;48.140;10.250;2023-03-01T04:25:53;23.77;;;17.90;;
8040;SDS011;4063;48.140;10.250;2023-03-01T04:28:27;26.40;;;18.43;;
8040;SDS011;4063;48.140;10.250;2023-03-01T04:30:54;25.90;;;18.73;;
8040;SDS011;4063;48.140;10.250;2023-03-01T04:33:20;23.33;;;18.33;;
8040;SDS011;4063;48.140;10.250;2023-03-01T04:35:46;20.97;;;17.40;;
8040;SDS011;4063;48.140;10.250;2023-03-01T04:38:14;23.20;;;18.73;;
8040;SDS011;4063;48.140;10.250;2023-03-01T04:40:40;25.17;;;19.17;;
8040;SDS011;4063;48.140;10.250;2023-03-01T04:43:08;28.53;;;19.00;;
8040;SDS011;4063;48.140;10.250;2023-03-01T04:45:34;26.03;;;19.53;;
8040;SDS011;4063;48.140;10.250;2023-03-01T04:48:00;23.80;;;18.13;;
8040;SDS011;4063;48.140;10.250;2023-03-01T04:50:26;22.80;;;18.00;;
8040;SDS011;4063;48.140;10.250;2023-03-01T04:52:52;23.47;;;18.00;;
8040;SDS011;4063;48.140;10.250;2023-03-01T04:55:19;24.17;;;19.20;;
8040;SDS011;4063;48.140;10.250;2023-03-01T04:57:45;24.57;;;18.73;;
8040;SDS011;4063;48.140;10.250;2023-03-01T05:00:12;24.93;;;19.57;;
8040;SDS011;4063;48.140;10.250;2023-03-01T05:02:51;24.20;;;19.57;;
8040;SDS011;4063;48.140;10.250;2023-03-01T05:05:22;24.60;;;19.30;;
8040;SDS011;4063;48.140;10.250;2023-03-01T05:07:50;24.00;;;18.00;;
8040;SDS011;4063;48.140;10.250;2023-03-01T05:10:16;23.00;;;17.50;;
8040;SDS011;4063;48.140;10.250;2023-03-01T05:12:42;24.87;;;18.63;;
8040;SDS011;4063;48.140;10.250;2023-03-01T05:15:09;24.57;;;18.53;;
8040;SDS011;4063;48.140;10.250;2023-03-01T05:17:35;27.27;;;19.13;;
8040;SDS011;4063;48.140;10.250;2023-03-01T05:20:01;21.20;;;18.00;;
8040;SDS011;4063;48.140;10.250;2023-03-01T05:22:32;25.27;;;20.50;;
8040;SDS011;4063;48.140;10.250;2023-03-01T05:24:58;24.50;;;19.37;;
8040;SDS011;4063;48.140;10.250;2023-03-01T05:27:23;23.60;;;19.97;;
8040;SDS011;4063;48.140;10.250;2023-03-01T05:29:49;24.97;;;20.73;;
8040;SDS011;4063;48.140;10.250;2023-03-01T05:32:15;24.87;;;18.80;;
8040;SDS011;4063;48.140;10.250;2023-03-01T05:34:41;25.60;;;19.67;;
8040;SDS011;4063;48.140;10.250;2023-03-01T05:37:07;25.87;;;20.37;;
8040;SDS011;4063;48.140;10.250;2023-03-01T05:39:34;24.20;;;18.43;;
8040;SDS011;4063;48.140;10.250;2023-03-01T05:42:00;22.93;;;18.70;;
8040;SDS011;4063;48.140;10.250;2023-03-01T05:44:27;23.10;;;18.27;;
8040;SDS011;4063;48.140;10.250;2023-03-01T05:46:53;24.53;;;18.40;;
8040;SDS011;4063;48.140;10.250;2023-03-01T05:49:19;26.10;;;18.70;;
8040;SDS011;4063;48.140;10.250;2023-03-01T05:51:48;23.97;;;18.43;;
8040;SDS011;4063;48.140;10.250;2023-03-01T05:54:15;23.60;;;18.63;;
8040;SDS011;4063;48.140;10.250;2023-03-01T05:56:41;25.83;;;18.43;;
8040;SDS011;4063;48.140;10.250;2023-03-01T05:59:07;24.23;;;18.70;;
8040;SDS011;4063;48.140;10.250;2023-03-01T06:01:33;24.87;;;18.50;;
8040;SDS011;4063;48.140;10.250;2023-03-01T06:03:59;26.27;;;18.97;;
8040;SDS011;4063;48.140;10.250;2023-03-01T06:06:25;24.20;;;18.10;;
8040;SDS011;4063;48.140;10.250;2023-03-01T06:08:52;23.00;;;18.37;;
8040;SDS011;4063;48.140;10.250;2023-03-01T06:11:18;24.83;;;19.33;;
8040;SDS011;4063;48.140;10.250;2023-03-01T06:13:45;26.23;;;19.07;;
8040;SDS011;4063;48.140;10.250;2023-03-01T06:16:11;27.93;;;20.17;;
8040;SDS011;4063;48.140;10.250;2023-03-01T06:18:37;25.03;;;18.07;;
8040;SDS011;4063;48.140;10.250;2023-03-01T06:21:04;28.43;;;18.67;;
8040;SDS011;4063;48.140;10.250;2023-03-01T06:23:30;26.70;;;18.57;;
8040;SDS011;4063;48.140;10.250;2023-03-01T06:25:56;26.03;;;18.63;;
8040;SDS011;4063;48.140;10.250;2023-03-01T06:28:22;23.93;;;18.47;;
8040;SDS011;4063;48.140;10.250;2023-03-01T06:30:50;25.57;;;18.27;;
8040;SDS011;4063;48.140;10.250;2023-03-01T06:33:16;28.93;;;18.47;;
8040;SDS011;4063;48.140;10.250;2023-03-01T06:35:44;24.30;;;17.97;;
8040;SDS011;4063;48.140;10.250;2023-03-01T06:38:10;22.67;;;17.97;;
8040;SDS011;4063;48.140;10.250;2023-03-01T06:40:36;26.67;;;18.70;;
8040;SDS011;4063;48.140;10.250;2023-03-01T06:43:02;26.17;;;18.97;;
8040;SDS011;4063;48.140;10.250;2023-03-01T06:45:28;28.40;;;19.50;;
8040;SDS011;4063;48.140;10.250;2023-03-01T06:48:00;24.97;;;18.33;;
8040;SDS011;4063;48.140;10.250;2023-03-01T06:50:27;24.43;;;18.93;;
8040;SDS011;4063;48.140;10.250;2023-03-01T06:52:56;24.47;;;19.63;;
8040;SDS011;4063;48.140;10.250;2023-03-01T06:55:22;26.30;;;20.10;;
8040;SDS011;4063;48.140;10.250;2023-03-01T06:57:48;22.13;;;18.30;;
8040;SDS011;4063;48.140;10.250;2023-03-01T07:00:14;27.23;;;20.20;;
8040;SDS011;4063;48.140;10.250;2023-03-01T07:02:40;22.03;;;18.23;;
8040;SDS011;4063;48.140;10.250;2023-03-01T07:05:07;33.53;;;26.03;;
8040;SDS011;4063;48.140;10.250;2023-03-01T07:07:33;56.77;;;38.33;;
8040;SDS011;4063;48.140;10.250;2023-03-01T07:09:59;35.47;;;24.27;;
8040;SDS011;4063;48.140;10.250;2023-03-01T07:12:25;27.83;;;19.57;;
8040;SDS011;4063;48.140;10.250;2023-03-01T07:14:50;25.93;;;18.93;;
8040;SDS011;4063;48.140;10.250;2023-03-01T07:17:16;25.87;;;19.07;;
8040;SDS011;4063;48.140;10.250;2023-03-01T07:19:43;25.43;;;19.10;;
8040;SDS011;4063;48.140;10.250;2023-03-01T07:22:10;26.17;;;18.77;;
8040;SDS011;4063;48.140;10.250;2023-03-01T07:24:36;24.70;;;20.03;;
8040;SDS011;4063;48.140;10.250;2023-03-01T07:27:02;24.80;;;18.40;;
8040;SDS011;4063;48.140;10.250;2023-03-01T07:29:28;32.27;;;19.97;;
8040;SDS011;4063;48.140;10.250;2023-03-01T07:31:54;26.07;;;19.33;;
8040;SDS011;4063;48.140;10.250;2023-03-01T07:34:20;24.73;;;18.57;;
8040;SDS011;4063;48.140;10.250;2023-03-01T07:36:46;25.87;;;18.83;;
8040;SDS011;4063;48.140;10.250;2023-03-01T07:39:12;29.27;;;19.20;;
8040;SDS011;4063;48.140;10.250;2023-03-01T07:41:38;27.33;;;20.30;;
8040;SDS011;4063;48.140;10.250;2023-03-01T07:44:04;27.73;;;19.73;;
8040;SDS011;4063;48.140;10.250;2023-03-01T07:46:30;28.53;;;19.53;;
8040;SDS011;4063;48.140;10.250;2023-03-01T07:48:57;27.67;;;20.10;;
8040;SDS011;4063;48.140;10.250;2023-03-01T07:51:23;27.77;;;20.27;;
8040;SDS011;4063;48.140;10.250;2023-03-01T07:53:49;24.80;;;18.67;;
8040;SDS011;4063;48.140;10.250;2023-03-01T07:56:16;25.43;;;19.17;;
8040;SDS011;4063;48.140;10.250;2023-03-01T07:58:47;23.10;;;18.30;;
8040;SDS011;4063;48.140;10.250;2023-03-01T08:01:15;26.67;;;19.07;;
8040;SDS011;4063;48.140;10.250;2023-03-01T08:03:42;26.40;;;20.00;;
8040;SDS011;4063;48.140;10.250;2023-03-01T08:06:09;22.70;;;18.43;;
8040;SDS011;4063;48.140;10.250;2023-03-01T08:08:36;19.70;;;16.27;;
8040;SDS011;4063;48.140;10.250;2023-03-01T08:11:02;21.47;;;17.10;;
8040;SDS011;4063;48.140;10.250;2023-03-01T08:13:29;19.80;;;17.03;;
8040;SDS011;4063;48.140;10.250;2023-03-01T08:16:00;22.23;;;17.70;;
8040;SDS011;4063;48.140;10.250;2023-03-01T08:18:27;21.87;;;17.20;;
8040;SDS011;4063;48.140;10.250;2023-03-01T08:20:53;21.80;;;16.83;;
8040;SDS011;4063;48.140;10.250;2023-03-01T08:23:18;22.83;;;17.50;;
8040;SDS011;4063;48.140;10.250;2023-03-01T08:25:44;23.93;;;16.80;;
8040;SDS011;4063;48.140;10.250;2023-03-01T08:28:11;22.13;;;17.40;;
8040;SDS011;4063;48.140;10.250;2023-03-01T08:30:37;24.50;;;17.53;;
8040;SDS011;4063;48.140;10.250;2023-03-01T08:33:02;20.33;;;17.33;;
8040;SDS011;4063;48.140;10.250;2023-03-01T08:35:28;20.80;;;17.87;;
8040;SDS011;4063;48.140;10.250;2023-03-01T08:37:54;20.80;;;17.23;;
8040;SDS011;4063;48.140;10.250;2023-03-01T08:40:20;26.90;;;18.00;;
8040;SDS011;4063;48.140;10.250;2023-03-01T08:42:46;20.77;;;16.47;;
8040;SDS011;4063;48.140;10.250;2023-03-01T08:45:12;21.07;;;16.93;;
8040;SDS011;4063;48.140;10.250;2023-03-01T08:47:43;22.00;;;17.80;;
8040;SDS011;4063;48.140;10.250;2023-03-01T08:50:09;21.37;;;16.80;;
8040;SDS011;4063;48.140;10.250;2023-03-01T08:52:35;21.73;;;16.77;;
8040;SDS011;4063;48.140;10.250;2023-03-01T08:55:01;21.63;;;16.87;;
8040;SDS011;4063;48.140;10.250;2023-03-01T08:57:27;25.23;;;19.03;;
8040;SDS011;4063;48.140;10.250;2023-03-01T08:59:53;24.13;;;18.23;;
8040;SDS011;4063;48.140;10.250;2023-03-01T09:02:21;26.67;;;16.20;;
8040;SDS011;4063;48.140;10.250;2023-03-01T09:04:47;23.63;;;17.53;;
8040;SDS011;4063;48.140;10.250;2023-03-01T09:07:13;23.40;;;17.03;;
8040;SDS011;4063;48.140;10.250;2023-03-01T09:09:39;22.27;;;16.30;;
8040;SDS011;4063;48.140;10.250;2023-03-01T09:12:05;21.90;;;16.27;;
8040;SDS011;4063;48.140;10.250;2023-03-01T09:14:31;20.37;;;16.17;;
8040;SDS011;4063;48.140;10.250;2023-03-01T09:16:57;22.07;;;16.93;;
8040;SDS011;4063;48.140;10.250;2023-03-01T09:19:23;19.77;;;16.50;;
8040;SDS011;4063;48.140;10.250;2023-03-01T09:21:49;23.93;;;16.57;;
8040;SDS011;4063;48.140;10.250;2023-03-01T09:24:19;24.70;;;18.50;;
8040;SDS011;4063;48.140;10.250;2023-03-01T09:26:46;22.27;;;17.70;;
8040;SDS011;4063;48.140;10.250;2023-03-01T09:29:12;21.83;;;17.57;;
8040;SDS011;4063;48.140;10.250;2023-03-01T09:31:39;24.00;;;19.37;;
8040;SDS011;4063;48.140;10.250;2023-03-01T09:34:05;30.90;;;23.03;;
8040;SDS011;4063;48.140;10.250;2023-03-01T09:36:31;36.83;;;25.20;;
8040;SDS011;4063;48.140;10.250;2023-03-01T09:38:58;23.80;;;18.50;;
8040;SDS011;4063;48.140;10.250;2023-03-01T09:43:51;24.63;;;17.73;;
8040;SDS011;4063;48.140;10.250;2023-03-01T09:46:19;19.90;;;16.30;;
8040;SDS011;4063;48.140;10.250;2023-03-01T09:48:57;22.67;;;17.50;;
8040;SDS011;4063;48.140;10.250;2023-03-01T09:51:27;19.90;;;17.00;;
8040;SDS011;4063;48.140;10.250;2023-03-01T09:53:55;20.33;;;17.73;;
8040;SDS011;4063;48.140;10.250;2023-03-01T09:59:56;23.50;;;17.83;;
8040;SDS011;4063;48.140;10.250;2023-03-01T10:09:24;21.37;;;16.70;;
8040;SDS011;4063;48.140;10.250;2023-03-01T10:11:54;21.73;;;16.10;;
8040;SDS011;4063;48.140;10.250;2023-03-01T10:14:35;21.30;;;16.80;;
8040;SDS011;4063;48.140;10.250;2023-03-01T10:22:05;22.43;;;16.17;;
8040;SDS011;4063;48.140;10.250;2023-03-01T10:24:35;20.37;;;16.93;;
8040;SDS011;4063;48.140;10.250;2023-03-01T10:27:04;20.07;;;16.90;;
8040;SDS011;4063;48.140;10.250;2023-03-01T10:29:41;23.17;;;17.83;;
8040;SDS011;4063;48.140;10.250;2023-03-01T10:32:09;21.40;;;17.47;;
8040;SDS011;4063;48.140;10.250;2023-03-01T10:34:36;20.30;;;17.00;;
8040;SDS011;4063;48.140;10.250;2023-03-01T10:37:12;21.43;;;16.73;;
8040;SDS011;4063;48.140;10.250;2023-03-01T10:39:53;22.37;;;17.97;;
8040;SDS011;4063;48.140;10.250;2023-03-01T10:43:10;21.53;;;16.77;;
8040;SDS011;4063;48.140;10.250;2023-03-01T10:50:30;24.37;;;17.17;;
8040;SDS011;4063;48.140;10.250;2023-03-01T10:53:01;23.13;;;17.77;;
8040;SDS011;4063;48.140;10.250;2023-03-01T10:55:34;22.70;;;18.20;;
8040;SDS011;4063;48.140;10.250;2023-03-01T11:00:33;22.93;;;17.97;;
8040;SDS011;4063;48.140;10.250;2023-03-01T11:03:12;21.37;;;17.07;;
8040;SDS011;4063;48.140;10.250;2023-03-01T11:05:49;23.70;;;18.33;;
8040;SDS011;4063;48.140;10.250;2023-03-01T11:08:25;22.67;;;18.40;;
8040;SDS011;4063;48.140;10.250;2023-03-01T11:11:03;23.63;;;17.93;;
8040;SDS011;4063;48.140;10.250;2023-03-01T11:13:30;21.70;;;17.07;;
8040;SDS011;4063;48.140;10.250;2023-03-01T11:16:00;25.90;;;18.33;;
8040;SDS011;4063;48.140;10.250;2023-03-01T11:18:26;24.67;;;18.03;;
8040;SDS011;4063;48.140;10.250;2023-03-01T11:20:53;28.33;;;18.83;;
8040;SDS011;4063;48.140;10.250;2023-03-01T11:23:21;24.83;;;18.60;;
8040;SDS011;4063;48.140;10.250;2023-03-01T11:25:49;23.77;;;17.97;;
8040;SDS011;4063;48.140;10.250;2023-03-01T11:28:18;25.80;;;18.90;;
8040;SDS011;4063;48.140;10.250;2023-03-01T11:30:53;25.37;;;18.60;;
8040;SDS011;4063;48.140;10.250;2023-03-01T11:33:24;24.42;;;21.20;;
8040;SDS011;4063;48.140;10.250;2023-03-01T11:36:00;23.67;;;18.63;;
8040;SDS011;4063;48.140;10.250;2023-03-01T11:38:27;23.33;;;19.47;;
8040;SDS011;4063;48.140;10.250;2023-03-01T11:40:57;24.97;;;20.03;;
8040;SDS011;4063;48.140;10.250;2023-03-01T11:46:16;26.00;;;19.10;;
8040;SDS011;4063;48.140;10.250;2023-03-01T11:54:12;23.90;;;19.03;;
8040;SDS011;4063;48.140;10.250;2023-03-01T11:56:47;21.03;;;18.07;;
8040;SDS011;4063;48.140;10.250;2023-03-01T12:04:26;33.43;;;25.00;;
8040;SDS011;4063;48.140;10.250;2023-03-01T12:06:57;46.63;;;32.30;;
8040;SDS011;4063;48.140;10.250;2023-03-01T12:14:46;24.30;;;20.00;;
8040;SDS011;4063;48.140;10.250;2023-03-01T12:27:21;22.93;;;18.53;;
8040;SDS011;4063;48.140;10.250;2023-03-01T12:34:55;24.73;;;19.27;;
8040;SDS011;4063;48.140;10.250;2023-03-01T12:37:31;22.97;;;19.33;;
8040;SDS011;4063;48.140;10.250;2023-03-01T12:40:03;21.77;;;18.03;;
8040;SDS011;4063;48.140;10.250;2023-03-01T12:43:41;22.97;;;18.07;;
8040;SDS011;4063;48.140;10.250;2023-03-01T12:48:06;24.20;;;18.73;;
8040;SDS011;4063;48.140;10.250;2023-03-01T12:50:40;21.80;;;18.33;;
8040;SDS011;4063;48.140;10.250;2023-03-01T12:53:10;24.07;;;18.83;;
8040;SDS011;4063;48.140;10.250;2023-03-01T12:55:42;27.43;;;17.40;;
8040;SDS011;4063;48.140;10.250;2023-03-01T13:00:58;23.57;;;17.07;;
8040;SDS011;4063;48.140;10.250;2023-03-01T13:03:54;25.10;;;18.87;;
8040;SDS011;4063;48.140;10.250;2023-03-01T13:11:40;27.23;;;18.40;;
8040;SDS011;4063;48.140;10.250;2023-03-01T13:16:52;20.87;;;17.67;;
8040;SDS011;4063;48.140;10.250;2023-03-01T13:19:20;25.97;;;19.20;;
8040;SDS011;4063;48.140;10.250;2023-03-01T13:21:46;28.77;;;21.37;;
8040;SDS011;4063;48.140;10.250;2023-03-01T13:27:26;26.03;;;19.97;;
8040;SDS011;4063;48.140;10.250;2023-03-01T13:29:58;23.67;;;18.10;;
8040;SDS011;4063;48.140;10.250;2023-03-01T13:32:33;20.93;;;18.03;;
8040;SDS011;4063;48.140;10.250;2023-03-01T13:35:03;19.83;;;17.53;;
8040;SDS011;4063;48.140;10.250;2023-03-01T13:37:49;18.77;;;16.70;;
8040;SDS011;4063;48.140;10.250;2023-03-01T13:42:44;17.67;;;15.98;;
8040;SDS011;4063;48.140;10.250;2023-03-01T13:47:55;19.35;;;17.27;;
8040;SDS011;4063;48.140;10.250;2023-03-01T13:50:23;17.77;;;16.02;;
8040;SDS011;4063;48.140;10.250;2023-03-01T13:52:52;18.23;;;16.42;;
8040;SDS011;4063;48.140;10.250;2023-03-01T13:55:38;18.48;;;16.58;;
8040;SDS011;4063;48.140;10.250;2023-03-01T13:58:49;19.38;;;16.88;;
8040;SDS011;4063;48.140;10.250;2023-03-01T14:03:22;18.95;;;17.08;;
8040;SDS011;4063;48.140;10.250;2023-03-01T14:05:59;18.02;;;16.17;;
8040;SDS011;4063;48.140;10.250;2023-03-01T14:08:27;19.58;;;17.70;;
8040;SDS011;4063;48.140;10.250;2023-03-01T14:11:00;18.00;;;16.20;;
8040;SDS011;4063;48.140;10.250;2023-03-01T14:13:34;19.30;;;17.30;;
8040;SDS011;4063;48.140;10.250;2023-03-01T14:21:29;19.40;;;17.25;;
8040;SDS011;4063;48.140;10.250;2023-03-01T14:23:56;17.75;;;15.95;;
8040;SDS011;4063;48.140;10.250;2023-03-01T14:26:22;18.73;;;16.88;;
8040;SDS011;4063;48.140;10.250;2023-03-01T14:28:49;20.48;;;18.58;;
8040;SDS011;4063;48.140;10.250;2023-03-01T14:31:29;18.40;;;16.70;;
8040;SDS011;4063;48.140;10.250;2023-03-01T14:33:57;17.55;;;15.75;;
8040;SDS011;4063;48.140;10.250;2023-03-01T14:36:27;18.52;;;16.73;;
8040;SDS011;4063;48.140;10.250;2023-03-01T14:38:54;16.55;;;14.95;;
8040;SDS011;4063;48.140;10.250;2023-03-01T14:41:24;17.83;;;15.18;;
8040;SDS011;4063;48.140;10.250;2023-03-01T14:44:02;16.83;;;15.02;;
8040;SDS011;4063;48.140;10.250;2023-03-01T14:46:30;19.77;;;16.83;;
8040;SDS011;4063;48.140;10.250;2023-03-01T14:48:58;19.77;;;17.88;;
8040;SDS011;4063;48.140;10.250;2023-03-01T14:51:30;17.30;;;15.60;;
8040;SDS011;4063;48.140;10.250;2023-03-01T14:53:56;18.05;;;16.23;;
8040;SDS011;4063;48.140;10.250;2023-03-01T14:56:22;17.70;;;15.25;;
8040;SDS011;4063;48.140;10.250;2023-03-01T14:58:51;17.25;;;15.43;;
8040;SDS011;4063;48.140;10.250;2023-03-01T15:01:19;19.75;;;16.88;;
8040;SDS011;4063;48.140;10.250;2023-03-01T15:03:46;18.25;;;16.40;;
8040;SDS011;4063;48.140;10.250;2023-03-01T15:06:17;18.23;;;16.33;;
8040;SDS011;4063;48.140;10.250;2023-03-01T15:08:47;17.63;;;15.63;;
8040;SDS011;4063;48.140;10.250;2023-03-01T15:13:41;18.95;;;15.23;;
8040;SDS011;4063;48.140;10.250;2023-03-01T15:19:06;17.40;;;15.80;;
8040;SDS011;4063;48.140;10.250;2023-03-01T15:21:33;16.67;;;15.07;;
8040;SDS011;4063;48.140;10.250;2023-03-01T15:24:05;16.20;;;14.63;;
8040;SDS011;4063;48.140;10.250;2023-03-01T15:26:45;16.25;;;14.70;;
8040;SDS011;4063;48.140;10.250;2023-03-01T15:29:19;16.17;;;14.63;;
8040;SDS011;4063;48.140;10.250;2023-03-01T15:34:25;15.98;;;14.38;;
8040;SDS011;4063;48.140;10.250;2023-03-01T15:36:52;17.52;;;14.65;;
8040;SDS011;4063;48.140;10.250;2023-03-01T15:39:26;17.90;;;14.48;;
8040;SDS011;4063;48.140;10.250;2023-03-01T15:41:53;16.17;;;14.60;;
8040;SDS011;4063;48.140;10.250;2023-03-01T15:44:27;16.98;;;15.30;;
8040;SDS011;4063;48.140;10.250;2023-03-01T15:46:53;16.25;;;14.65;;
8040;SDS011;4063;48.140;10.250;2023-03-01T15:51:45;16.15;;;14.55;;
8040;SDS011;4063;48.140;10.250;2023-03-01T15:54:17;17.40;;;15.63;;
8040;SDS011;4063;48.140;10.250;2023-03-01T15:56:44;17.42;;;14.95;;
8040;SDS011;4063;48.140;10.250;2023-03-01T15:59:11;15.98;;;14.43;;
8040;SDS011;4063;48.140;10.250;2023-03-01T16:01:39;17.02;;;15.35;;
8040;SDS011;4063;48.140;10.250;2023-03-01T16:04:04;16.08;;;14.48;;
8040;SDS011;4063;48.140;10.250;2023-03-01T16:06:30;16.77;;;15.07;;
8040;SDS011;4063;48.140;10.250;2023-03-01T16:08:56;16.70;;;15.05;;
8040;SDS011;4063;48.140;10.250;2023-03-01T16:11:23;17.25;;;15.45;;
8040;SDS011;4063;48.140;10.250;2023-03-01T16:13:49;18.23;;;16.33;;
8040;SDS011;4063;48.140;10.250;2023-03-01T16:16:15;19.90;;;17.60;;
8040;SDS011;4063;48.140;10.250;2023-03-01T16:18:42;23.58;;;19.85;;
8040;SDS011;4063;48.140;10.250;2023-03-01T16:21:26;25.10;;;21.33;;
8040;SDS011;4063;48.140;10.250;2023-03-01T16:23:52;22.30;;;18.20;;
8040;SDS011;4063;48.140;10.250;2023-03-01T16:26:18;20.00;;;17.90;;
8040;SDS011;4063;48.140;10.250;2023-03-01T16:28:45;23.23;;;18.70;;